.
WxDataArchive / Data Records for 2006-02-21
2006-02-20 February 2006 2006-02-22

Data Records for Tuesday, 21 February 2006

Time	Temp	Chill	HIndex	Humid	Dewpt	 Wind 	HiWind	WindDir	Rain 	Barom 
-----	----	-----	------	-----	-----	------	------	-------	-----	----- 
00:00	28.1	21.6	28.1	61	16.4	6	13	270	0.00	29.968 
00:05	28.1	21.6	28.1	61	16.4	6	15	270	0.00	29.968 
00:10	27.9	22.3	27.9	60	15.8	5	12	270	0.00	29.968 
00:15	27.9	21.3	27.9	61	16.2	6	12	270	0.00	29.965 
00:20	27.9	23.3	27.9	61	16.2	4	13	248	0.00	29.965 
00:25	27.9	22.3	27.9	61	16.2	5	14	270	0.00	29.965 
00:30	27.9	22.3	27.9	60	15.8	5	11	270	0.00	29.959 
00:35	27.8	27.8	27.8	61	16.1	3	11	270	0.00	29.959 
00:40	27.8	27.8	27.8	61	16.1	3	12	248	0.00	29.959 
00:45	27.6	23.0	27.6	62	16.3	4	11	270	0.00	29.960 
00:50	27.5	22.9	27.5	62	16.2	4	11	270	0.00	29.960 
00:55	27.3	21.6	27.3	62	16.0	5	14	270	0.00	29.960 
01:00	27.2	22.5	27.2	63	16.3	4	13	270	0.00	29.960 
01:05	27.0	22.3	27.0	63	16.1	4	9	248	0.00	29.960 
01:10	26.7	26.7	26.7	64	16.2	3	13	270	0.00	29.960 
01:15	26.6	26.6	26.6	64	16.1	3	10	270	0.00	29.959 
01:20	26.6	20.7	26.6	64	16.1	5	12	270	0.00	29.959 
01:25	26.4	20.5	26.4	64	15.9	5	11	270	0.00	29.959 
01:30	26.4	19.6	26.4	64	15.9	6	13	270	0.00	29.957 
01:35	26.3	21.5	26.3	64	15.8	4	9	248	0.00	29.957 
01:40	26.1	21.3	26.1	64	15.6	4	14	248	0.00	29.957 
01:45	26.0	21.1	26.0	64	15.5	4	11	270	0.00	29.959 
01:50	26.0	20.0	26.0	64	15.5	5	12	270	0.00	29.959 
01:55	25.8	20.9	25.8	64	15.3	4	12	270	0.00	29.959 
02:00	25.8	19.8	25.8	64	15.3	5	13	270	0.00	29.960 
02:05	25.8	19.8	25.8	64	15.3	5	10	248	0.00	29.960 
02:10	25.7	20.8	25.7	64	15.2	4	12	270	0.00	29.960 
02:15	25.7	20.8	25.7	64	15.2	4	12	270	0.00	29.958 
02:20	25.6	25.6	25.6	65	15.5	3	9	248	0.00	29.958 
02:25	25.4	25.4	25.4	65	15.3	3	10	248	0.00	29.958 
02:30	25.4	20.5	25.4	65	15.3	4	10	270	0.00	29.959 
02:35	25.4	19.3	25.4	65	15.3	5	13	248	0.00	29.959 
02:40	25.4	20.5	25.4	65	15.3	4	12	248	0.00	29.959 
02:45	25.3	20.3	25.3	65	15.2	4	10	248	0.00	29.958 
02:50	25.3	20.3	25.3	66	15.6	4	9	270	0.00	29.958 
02:55	25.1	20.1	25.1	66	15.4	4	10	270	0.00	29.958 
03:00	25.1	19.0	25.1	66	15.4	5	12	270	0.00	29.950 
03:05	25.1	19.0	25.1	66	15.4	5	16	248	0.00	29.950 
03:10	25.1	20.1	25.1	66	15.4	4	11	248	0.00	29.950 
03:15	25.0	25.0	25.0	67	15.6	3	9	248	0.00	29.945 
03:20	24.8	19.8	24.8	67	15.4	4	9	248	0.00	29.945 
03:25	24.7	24.7	24.7	68	15.7	3	10	248	0.00	29.945 
03:30	24.7	19.6	24.7	68	15.7	4	7	248	0.00	29.943 
03:35	24.5	19.4	24.5	68	15.5	4	9	270	0.00	29.943 
03:40	24.5	19.4	24.5	69	15.8	4	9	248	0.00	29.943 
03:45	24.4	19.3	24.4	69	15.7	4	9	270	0.00	29.937 
03:50	24.4	24.4	24.4	69	15.7	3	7	270	0.00	29.937 
03:55	24.2	19.1	24.2	70	15.9	4	12	248	0.00	29.937 
04:00	24.2	19.1	24.2	70	15.9	4	12	248	0.00	29.932 
04:05	24.2	19.1	24.2	70	15.9	4	11	270	0.00	29.932 
04:10	24.1	19.0	24.1	70	15.8	4	11	270	0.00	29.932 
04:15	24.1	19.0	24.1	70	15.8	4	13	248	0.00	29.929 
04:20	24.1	19.0	24.1	71	16.1	4	11	248	0.00	29.929 
04:25	23.9	18.7	23.9	71	15.9	4	9	248	0.00	29.929 
04:30	23.9	18.7	23.9	71	15.9	4	12	248	0.00	29.929 
04:35	23.9	17.6	23.9	72	16.2	5	11	248	0.00	29.929 
04:40	23.9	17.6	23.9	72	16.2	5	12	248	0.00	29.929 
04:45	23.9	18.7	23.9	72	16.2	4	11	248	0.00	29.929 
04:50	23.9	18.7	23.9	73	16.5	4	11	248	0.00	29.929 
04:55	23.8	18.6	23.8	73	16.4	4	14	248	0.00	29.929 
05:00	23.8	18.6	23.8	73	16.4	4	9	248	0.00	29.931 
05:05	23.8	23.8	23.8	73	16.4	3	7	248	0.00	29.931 
05:10	23.8	18.6	23.8	73	16.4	4	11	248	0.00	29.931 
05:15	23.6	23.6	23.6	74	16.6	3	6	248	0.00	29.935 
05:20	23.5	23.5	23.5	74	16.5	3	10	248	0.00	29.935 
05:25	23.5	18.3	23.5	75	16.8	4	8	248	0.00	29.935 
05:30	23.3	23.3	23.3	75	16.6	3	6	248	0.00	29.943 
05:35	23.3	23.3	23.3	75	16.6	3	10	248	0.00	29.943 
05:40	23.3	23.3	23.3	76	16.9	3	7	248	0.00	29.943 
05:45	23.3	23.3	23.3	76	16.9	3	6	248	0.00	29.945 
05:50	23.3	23.3	23.3	76	16.9	3	9	248	0.00	29.945 
05:55	23.5	18.3	23.5	76	17.1	4	10	248	0.00	29.945 
06:00	23.5	18.3	23.5	76	17.1	4	11	248	0.00	29.946 
06:05	23.5	17.1	23.5	76	17.1	5	11	248	0.00	29.946 
06:10	23.5	18.3	23.5	76	17.1	4	10	270	0.00	29.946 
06:15	23.5	18.3	23.5	76	17.1	4	10	270	0.00	29.946 
06:20	23.5	17.1	23.5	76	17.1	5	13	248	0.00	29.946 
06:25	23.6	18.4	23.6	76	17.2	4	11	248	0.00	29.946 
06:30	23.5	23.5	23.5	77	17.4	3	9	248	0.00	29.948 
06:35	23.5	18.3	23.5	77	17.4	4	10	248	0.00	29.948 
06:40	23.6	18.4	23.6	77	17.5	4	9	248	0.00	29.948 
06:45	23.6	23.6	23.6	77	17.5	3	7	248	0.00	29.947 
06:50	23.6	23.6	23.6	77	17.5	3	6	248	0.00	29.947 
06:55	23.6	23.6	23.6	77	17.5	3	9	248	0.00	29.947 
07:00	23.8	23.8	23.8	77	17.7	3	6	270	0.00	29.949 
07:05	23.8	18.6	23.8	77	17.7	4	9	248	0.00	29.949 
07:10	23.9	18.7	23.9	77	17.8	4	10	248	0.00	29.949 
07:15	24.1	16.8	24.1	76	17.7	6	15	270	0.00	29.945 
07:20	24.2	17.9	24.2	76	17.7	5	14	248	0.00	29.945 
07:25	24.2	19.1	24.2	76	17.7	4	10	248	0.00	29.945 
07:30	24.1	19.0	24.1	76	17.7	4	10	248	0.00	29.948 
07:35	24.1	24.1	24.1	76	17.7	3	11	270	0.00	29.948 
07:40	24.1	24.1	24.1	77	18.0	3	10	270	0.00	29.948 
07:45	24.1	24.1	24.1	77	18.0	3	6	248	0.00	29.959 
07:50	24.1	19.0	24.1	77	18.0	4	11	270	0.00	29.959 
07:55	24.1	19.0	24.1	77	18.0	4	11	270	0.00	29.959 
08:00	24.2	19.1	24.2	77	18.1	4	12	270	0.00	29.962 
08:05	24.2	17.9	24.2	77	18.1	5	12	270	0.00	29.962 
08:10	24.4	24.4	24.4	77	18.2	3	9	270	0.00	29.962 
08:15	24.5	24.5	24.5	76	18.0	3	9	248	0.00	29.974 
08:20	24.5	24.5	24.5	76	18.0	3	10	248	0.00	29.974 
08:25	24.7	19.6	24.7	76	18.2	4	11	248	0.00	29.974 
08:30	24.8	24.8	24.8	76	18.3	3	7	248	0.00	29.977 
08:35	25.0	20.0	25.0	76	18.5	4	11	270	0.00	29.977 
08:40	25.1	20.1	25.1	75	18.3	4	10	270	0.00	29.977 
08:45	25.3	20.3	25.3	75	18.5	4	10	270	0.00	29.989 
08:50	25.4	25.4	25.4	75	18.6	3	11	270	0.00	29.989 
08:55	25.7	25.7	25.7	74	18.6	3	9	270	0.00	29.989 
09:00	26.0	26.0	26.0	74	18.9	2	5	248	0.00	29.991 
09:05	26.1	21.3	26.1	73	18.7	4	13	248	0.00	29.991 
09:10	26.3	21.5	26.3	72	18.5	4	10	270	0.00	29.991 
09:15	26.4	21.6	26.4	72	18.6	4	11	270	0.00	29.996 
09:20	26.7	26.7	26.7	72	18.9	3	9	270	0.00	29.996 
09:25	26.9	26.9	26.9	71	18.8	3	7	270	0.00	29.996 
09:30	27.2	27.2	27.2	71	19.1	3	7	270	0.00	30.004 
09:35	27.5	27.5	27.5	72	19.7	3	7	270	0.00	30.004 
09:40	27.6	27.6	27.6	71	19.4	3	7	270	0.00	30.004 
09:45	27.6	27.6	27.6	70	19.1	3	7	270	0.00	30.002 
09:50	27.8	27.8	27.8	69	19.0	3	7	270	0.00	30.002 
09:55	27.9	27.9	27.9	70	19.4	1	4	270	0.00	30.002 
10:00	28.4	28.4	28.4	69	19.5	2	6	270	0.00	30.006 
10:05	28.4	28.4	28.4	68	19.2	3	7	270	0.00	30.006 
10:10	28.4	28.4	28.4	69	19.5	3	6	248	0.00	30.006 
10:15	28.7	28.7	28.7	67	19.2	3	6	270	0.00	30.010 
10:20	28.8	28.8	28.8	68	19.6	3	9	270	0.00	30.010 
10:25	29.0	29.0	29.0	67	19.4	2	5	270	0.00	30.010 
10:30	29.7	29.7	29.7	66	19.8	3	6	270	0.00	30.006 
10:35	30.4	30.4	30.4	65	20.1	2	4	292	0.00	30.006 
10:40	30.9	30.9	30.9	63	19.8	3	7	248	0.00	30.006 
10:45	30.9	30.9	30.9	63	19.8	3	6	270	0.00	30.006 
10:50	31.2	31.2	31.2	64	20.5	2	7	315	0.00	30.006 
10:55	31.3	31.3	31.3	62	19.8	3	6	270	0.00	30.006 
11:00	31.5	31.5	31.5	62	20.0	2	5	270	0.00	30.012 
11:05	31.9	31.9	31.9	62	20.4	2	4	270	0.00	30.012 
11:10	32.2	32.2	32.2	60	19.9	3	9	248	0.00	30.012 
11:15	32.4	32.4	32.4	59	19.7	3	9	270	0.00	30.014 
11:20	32.5	32.5	32.5	59	19.8	3	10	248	0.00	30.014 
11:25	32.7	32.7	32.7	60	20.4	2	5	270	0.00	30.014 
11:30	33.2	33.2	33.2	59	20.4	2	4	270	0.00	30.016 
11:35	33.5	33.5	33.5	57	19.9	2	6	248	0.00	30.016 
11:40	33.4	29.7	33.4	59	20.6	4	12	270	0.00	30.016 
11:45	33.7	33.7	33.7	57	20.1	3	11	270	0.00	30.016 
11:50	33.7	30.0	33.7	56	19.7	4	7	248	0.00	30.016 
11:55	33.8	33.8	33.8	54	18.9	3	9	270	0.00	30.016 
12:00	34.1	34.1	34.1	55	19.6	3	7	270	0.00	30.016 
12:05	34.4	34.4	34.4	56	20.3	2	5	338	0.00	30.016 
12:10	34.6	34.6	34.6	53	19.2	3	7	248	0.00	30.016 
12:15	35.0	35.0	35.0	51	18.7	3	10	248	0.00	30.017 
12:20	34.7	30.2	34.7	52	18.9	5	11	270	0.00	30.017 
12:25	35.2	35.2	35.2	52	19.4	3	9	248	0.00	30.017 
12:30	35.6	32.2	35.6	51	19.3	4	11	270	0.00	30.017 
12:35	35.8	32.5	35.8	52	19.9	4	10	270	0.00	30.017 
12:40	35.5	32.1	35.5	50	18.7	4	11	270	0.00	30.017 
12:45	35.9	35.9	35.9	51	19.6	2	6	270	0.00	30.013 
12:50	36.5	33.3	36.5	46	17.7	4	10	270	0.00	30.013 
12:55	36.9	33.7	36.9	46	18.1	4	11	270	0.00	30.013 
13:00	36.9	36.9	36.9	46	18.1	3	7	270	0.00	30.008 
13:05	37.0	33.9	37.0	49	19.6	4	11	248	0.00	30.008 
13:10	37.3	37.3	37.3	47	18.9	3	12	270	0.00	30.008 
13:15	37.3	33.3	37.3	45	17.9	5	11	270	0.00	30.001 
13:20	37.2	34.1	37.2	46	18.3	4	9	248	0.00	30.001 
13:25	37.2	33.2	37.2	47	18.8	5	14	270	0.00	30.001 
13:30	37.2	34.1	37.2	48	19.3	4	14	248	0.00	29.998 
13:35	38.2	38.2	38.2	46	19.3	3	7	270	0.00	29.998 
13:40	38.3	35.4	38.3	45	18.8	4	7	270	0.00	29.998 
13:45	38.2	35.2	38.2	43	17.7	4	7	270	0.00	29.995 
13:50	38.5	38.5	38.5	45	19.0	3	10	270	0.00	29.995 
13:55	38.8	35.9	38.8	46	19.8	4	13	270	0.00	29.995 
14:00	38.9	36.0	38.9	44	18.9	4	10	270	0.00	29.993 
14:05	39.3	39.3	39.3	44	19.2	2	5	270	0.00	29.993 
14:10	40.1	40.1	40.1	43	19.4	3	8	270	0.00	29.993 
14:15	39.1	39.1	39.1	43	18.5	3	6	248	0.00	29.986 
14:20	38.9	36.0	38.9	45	19.4	4	7	270	0.00	29.986 
14:25	39.5	36.7	39.5	44	19.4	4	11	270	0.00	29.986 
14:30	39.8	37.1	39.8	42	18.6	4	14	248	0.00	29.983 
14:35	39.8	36.2	39.8	43	19.1	5	12	270	0.00	29.983 
14:40	40.1	36.6	40.1	43	19.4	5	15	270	0.00	29.983 
14:45	40.2	36.7	40.2	43	19.5	5	11	270	0.00	29.980 
14:50	39.9	36.4	39.9	43	19.2	5	11	270	0.00	29.980 
14:55	40.2	37.5	40.2	43	19.5	4	14	270	0.00	29.980 
15:00	40.1	36.6	40.1	43	19.4	5	19	270	0.00	29.981 
15:05	39.9	35.6	39.9	44	19.8	6	14	270	0.00	29.981 
15:10	40.1	36.6	40.1	43	19.4	5	13	270	0.00	29.981 
15:15	40.5	37.1	40.5	42	19.2	5	13	270	0.00	29.972 
15:20	41.1	37.8	41.1	42	19.8	5	11	270	0.00	29.972 
15:25	40.9	40.9	40.9	41	19.0	3	6	270	0.00	29.972 
15:30	40.9	40.9	40.9	43	20.1	3	9	270	0.00	29.974 
15:35	41.2	41.2	41.2	42	19.9	3	7	270	0.00	29.974 
15:40	40.8	38.2	40.8	43	20.1	4	8	270	0.00	29.974 
15:45	40.1	37.4	40.1	44	20.0	4	14	270	0.00	29.978 
15:50	39.9	39.9	39.9	43	19.2	3	8	270	0.00	29.978 
15:55	40.2	40.2	40.2	44	20.0	3	7	270	0.00	29.978 
16:00	40.1	40.1	40.1	45	20.5	3	9	270	0.00	29.979 
16:05	39.9	39.9	39.9	44	19.8	3	9	270	0.00	29.979 
16:10	39.9	39.9	39.9	45	20.3	3	6	270	0.00	29.979 
16:15	40.1	37.4	40.1	45	20.5	4	13	248	0.00	29.976 
16:20	40.5	40.5	40.5	45	20.8	3	5	270	0.00	29.976 
16:25	40.8	38.2	40.8	43	20.1	4	7	270	0.00	29.976 
16:30	40.6	40.6	40.6	43	19.9	3	6	270	0.00	29.972 
16:35	40.6	40.6	40.6	43	19.9	3	5	270	0.00	29.972 
16:40	40.8	40.8	40.8	43	20.1	3	9	270	0.00	29.972 
16:45	40.1	36.6	40.1	43	19.4	5	12	270	0.00	29.974 
16:50	39.6	36.0	39.6	44	19.5	5	10	248	0.00	29.974 
16:55	39.3	39.3	39.3	46	20.3	3	6	248	0.00	29.974 
17:00	39.2	36.4	39.2	45	19.7	4	12	248	0.00	29.975 
17:05	39.2	35.5	39.2	46	20.2	5	15	248	0.00	29.975 
17:10	39.2	35.5	39.2	46	20.2	5	10	270	0.00	29.975 
17:15	39.2	35.5	39.2	46	20.2	5	14	270	0.00	29.973 
17:20	39.1	36.3	39.1	47	20.6	4	10	270	0.00	29.973 
17:25	38.9	38.9	38.9	47	20.4	2	6	248	0.00	29.973 
17:30	38.9	38.9	38.9	48	20.9	3	9	248	0.00	29.973 
17:35	38.9	38.9	38.9	48	20.9	3	10	248	0.00	29.973 
17:40	38.9	36.0	38.9	48	20.9	4	7	248	0.00	29.973 
17:45	38.9	38.9	38.9	49	21.4	2	5	248	0.00	29.971 
17:50	38.8	38.8	38.8	49	21.3	2	7	248	0.00	29.971 
17:55	38.6	38.6	38.6	50	21.6	2	5	248	0.00	29.971 
18:00	38.6	38.6	38.6	50	21.6	3	6	248	0.00	29.965 
18:05	38.5	38.5	38.5	50	21.5	2	5	248	0.00	29.965 
18:10	38.2	38.2	38.2	50	21.2	2	5	248	0.00	29.965 
18:15	38.0	38.0	38.0	51	21.5	2	4	248	0.00	29.956 
18:20	37.8	37.8	37.8	51	21.3	1	2	248	0.00	29.956 
18:25	37.3	37.3	37.3	52	21.3	0	2	248	0.00	29.956 
18:30	36.8	36.8	36.8	54	21.7	0	1	248	0.00	29.958 
18:35	36.3	36.3	36.3	55	21.7	0	1	248	0.00	29.958 
18:40	35.8	35.8	35.8	56	21.7	0	0	---	0.00	29.958 
18:45	35.2	35.2	35.2	58	21.9	0	0	---	0.00	29.958 
18:50	34.7	34.7	34.7	59	21.9	0	1	248	0.00	29.958 
18:55	34.3	34.3	34.3	60	21.9	0	0	---	0.00	29.958 
19:00	33.8	33.8	33.8	61	21.8	0	0	---	0.00	29.962 
19:05	33.5	33.5	33.5	61	21.5	0	0	---	0.00	29.962 
19:10	33.2	33.2	33.2	62	21.6	0	0	---	0.00	29.962 
19:15	33.1	33.1	33.1	62	21.5	0	1	248	0.00	29.963 
19:20	32.8	32.8	32.8	63	21.6	0	0	---	0.00	29.963 
19:25	32.7	32.7	32.7	63	21.5	0	0	---	0.00	29.963 
19:30	32.4	32.4	32.4	64	21.6	0	0	---	0.00	29.968 
19:35	32.2	32.2	32.2	64	21.4	0	0	---	0.00	29.968 
19:40	31.9	31.9	31.9	65	21.5	0	0	---	0.00	29.968 
19:45	31.8	31.8	31.8	65	21.4	0	0	---	0.00	29.971 
19:50	31.6	31.6	31.6	65	21.2	0	0	---	0.00	29.971 
19:55	31.6	31.6	31.6	65	21.2	0	1	248	0.00	29.971 
20:00	31.5	31.5	31.5	66	21.5	0	0	---	0.00	29.969 
20:05	31.3	31.3	31.3	66	21.3	0	0	---	0.00	29.969 
20:10	31.2	31.2	31.2	66	21.2	0	0	---	0.00	29.969 
20:15	30.9	30.9	30.9	67	21.3	0	0	---	0.00	29.961 
20:20	30.7	30.7	30.7	67	21.1	0	0	---	0.00	29.961 
20:25	30.7	30.7	30.7	68	21.4	0	1	248	0.00	29.961 
20:30	30.6	30.6	30.6	68	21.3	0	0	---	0.00	29.958 
20:35	30.6	30.6	30.6	68	21.3	0	0	---	0.00	29.958 
20:40	30.4	30.4	30.4	68	21.1	0	0	---	0.00	29.958 
20:45	30.3	30.3	30.3	69	21.4	0	0	---	0.00	29.958 
20:50	30.0	30.0	30.0	69	21.1	0	0	---	0.00	29.958 
20:55	29.8	29.8	29.8	69	20.9	0	0	---	0.00	29.958 
21:00	29.8	29.8	29.8	70	21.2	0	0	---	0.00	29.951 
21:05	29.8	29.8	29.8	70	21.2	0	0	---	0.00	29.951 
21:10	29.7	29.7	29.7	70	21.1	0	0	---	0.00	29.951 
21:15	29.8	29.8	29.8	70	21.2	0	1	248	0.00	29.947 
21:20	30.0	30.0	30.0	70	21.4	0	1	248	0.00	29.947 
21:25	30.3	30.3	30.3	70	21.7	0	2	248	0.00	29.947 
21:30	30.4	30.4	30.4	70	21.8	0	2	248	0.00	29.943 
21:35	30.7	30.7	30.7	70	22.1	0	3	248	0.00	29.943 
21:40	31.2	31.2	31.2	70	22.6	0	2	248	0.00	29.943 
21:45	31.5	31.5	31.5	69	22.5	1	2	248	0.00	29.939 
21:50	31.9	31.9	31.9	68	22.6	1	2	248	0.00	29.939 
21:55	32.2	32.2	32.2	67	22.5	1	3	248	0.00	29.939 
22:00	32.7	32.7	32.7	66	22.6	2	5	248	0.00	29.942 
22:05	33.1	33.1	33.1	65	22.6	2	5	248	0.00	29.942 
22:10	33.4	33.4	33.4	64	22.6	2	5	225	0.00	29.942 
22:15	33.5	33.5	33.5	63	22.3	2	5	248	0.00	29.936 
22:20	33.8	33.8	33.8	63	22.6	2	5	248	0.00	29.936 
22:25	33.8	33.8	33.8	62	22.2	2	3	248	0.00	29.936 
22:30	34.0	34.0	34.0	62	22.4	2	5	248	0.00	29.935 
22:35	34.1	34.1	34.1	62	22.5	2	5	248	0.00	29.935 
22:40	34.1	34.1	34.1	61	22.1	2	4	248	0.00	29.935 
22:45	34.1	34.1	34.1	61	22.1	1	3	248	0.00	29.930 
22:50	34.1	34.1	34.1	61	22.1	2	4	248	0.00	29.930 
22:55	34.1	34.1	34.1	61	22.1	1	3	225	0.00	29.930 
23:00	34.0	34.0	34.0	61	22.0	1	5	248	0.00	29.924 
23:05	34.0	34.0	34.0	61	22.0	2	4	248	0.00	29.924 
23:10	33.8	33.8	33.8	62	22.2	2	3	248	0.00	29.924 
23:15	33.8	33.8	33.8	62	22.2	1	5	248	0.00	29.930 
23:20	33.7	33.7	33.7	62	22.1	2	4	248	0.00	29.930 
23:25	33.7	33.7	33.7	62	22.1	2	5	248	0.00	29.930 
23:30	33.8	33.8	33.8	62	22.2	2	5	248	0.00	29.930 
23:35	33.8	33.8	33.8	62	22.2	2	4	248	0.00	29.930 
23:40	33.7	33.7	33.7	62	22.1	2	5	248	0.00	29.930 
23:45	33.5	33.5	33.5	62	21.9	2	4	248	0.00	29.927 
23:50	33.5	33.5	33.5	62	21.9	2	4	248	0.00	29.927 
23:55	33.5	33.5	33.5	62	21.9	1	3	248	0.00	29.927 

CoCoRaHS
IN-AL-39
A2 Web Hosting
Creative Commons License
GoDaddy
Look for:

loaded 2017-12-12 16:51:49 • last modified 2010-11-18 10:43:29
Privacy PolicyDisclaimer
• wx.awcolley.com is powered by PmWiki v.2002016 •
• all content (unless otherwise noted) © 2017 A W Colley